Summerland Key, Florida
Current Conditions -  °F | °C
As of 8:53 PM on Friday 28 Nov 2014 (Local Time) from KNQX Reporting Station
Clear Clear  
Wind Chill: 64°   Ceiling: Unl
Heat Index: 64°   Visibility: 10mi
Dew Point: 50°   Wind: 12mph
Humidity: 60%   Direction: 30°NNE
Pressure: 30.19"   Gusts: NA
Location:  24.67°N, 81.44°W
Report Text: KNQX 290153Z 03010KT 10SM CLR 18/10 A3019 RMK AO2 SLP222 T01780100 $
Loading
Personal Weather Stations






























Interactive Weather Map New forecast layout! Learn more

10-Day Weather Forecast

Advertisements
Track Severe Weather on mobile